createdAt,value
2023-05-14T00:02:05.587Z,73.11
2023-05-14T00:04:33.256Z,73.28
2023-05-14T00:07:02.226Z,73.20
2023-05-14T00:09:30.293Z,73.08
2023-05-14T00:11:57.861Z,72.82
2023-05-14T00:14:25.376Z,72.86
2023-05-14T00:16:52.892Z,72.70
2023-05-14T00:19:20.701Z,72.61
2023-05-14T00:21:48.284Z,73.57
2023-05-14T00:24:17.115Z,73.35
2023-05-14T00:26:44.720Z,73.73
2023-05-14T00:29:12.257Z,73.59
2023-05-14T00:31:39.853Z,73.46
2023-05-14T00:34:07.447Z,74.78
2023-05-14T00:36:34.991Z,76.28
2023-05-14T00:39:02.524Z,76.54
2023-05-14T00:41:31.368Z,77.15
2023-05-14T00:43:59.050Z,77.14
2023-05-14T00:46:26.886Z,76.50
2023-05-14T00:48:54.656Z,77.27
2023-05-14T00:51:23.186Z,76.75
2023-05-14T00:53:51.801Z,77.34
2023-05-14T00:56:19.917Z,78.07
2023-05-14T00:58:48.785Z,77.92
2023-05-14T01:01:16.629Z,78.33
2023-05-14T01:03:45.280Z,78.08
2023-05-14T01:06:19.623Z,78.50
2023-05-14T01:09:09.873Z,78.13
2023-05-14T01:11:43.174Z,78.12
2023-05-14T01:14:21.102Z,77.84
2023-05-14T01:16:49.341Z,77.76
2023-05-14T01:19:24.215Z,78.11
2023-05-14T01:21:53.101Z,78.09
2023-05-14T01:24:20.672Z,77.86
2023-05-14T01:26:48.337Z,78.19
2023-05-14T01:29:21.014Z,77.98
2023-05-14T01:31:50.818Z,78.10
2023-05-14T01:34:22.065Z,77.81
2023-05-14T01:36:51.172Z,78.09
2023-05-14T01:39:20.825Z,77.04
2023-05-14T01:41:49.582Z,77.28
2023-05-14T01:44:18.450Z,76.02
2023-05-14T01:46:45.964Z,76.80
2023-05-14T01:49:13.635Z,77.02
2023-05-14T01:51:41.274Z,76.79
2023-05-14T01:54:08.816Z,78.06
2023-05-14T01:56:37.671Z,77.49
2023-05-14T01:59:05.261Z,77.48
2023-05-14T02:01:33.810Z,77.14
2023-05-14T02:04:01.992Z,76.66
2023-05-14T02:06:29.549Z,76.19
2023-05-14T02:08:57.045Z,75.79
2023-05-14T02:11:24.560Z,75.58
2023-05-14T02:13:53.453Z,75.52
2023-05-14T02:16:20.991Z,75.58
2023-05-14T02:18:48.516Z,75.61
2023-05-14T02:21:16.081Z,76.88
2023-05-14T02:23:44.171Z,77.68
2023-05-14T02:26:13.072Z,77.52
2023-05-14T02:28:40.678Z,78.11
2023-05-14T02:31:09.567Z,77.06
2023-05-14T02:33:37.178Z,76.97
2023-05-14T02:36:04.793Z,77.09
2023-05-14T02:38:32.347Z,77.49
2023-05-14T02:40:59.815Z,77.45
2023-05-14T02:43:27.351Z,77.02
2023-05-14T02:45:54.927Z,77.20
2023-05-14T02:48:23.831Z,76.85
2023-05-14T02:50:52.057Z,76.71
2023-05-14T02:53:19.666Z,76.24
2023-05-14T02:55:47.173Z,76.04
2023-05-14T02:58:14.974Z,75.88
2023-05-14T03:00:42.484Z,76.61
2023-05-14T03:03:10.366Z,76.39
2023-05-14T03:05:39.809Z,76.21
2023-05-14T03:08:07.570Z,76.18
2023-05-14T03:10:35.116Z,76.03
2023-05-14T03:13:02.643Z,76.34
2023-05-14T03:15:30.424Z,77.02
2023-05-14T03:17:57.968Z,76.62
2023-05-14T03:20:26.333Z,76.86
2023-05-14T03:22:56.031Z,76.47
2023-05-14T03:25:23.566Z,78.17
2023-05-14T03:27:51.072Z,78.02
2023-05-14T03:30:18.659Z,77.32
2023-05-14T03:32:46.467Z,77.53
2023-05-14T03:35:13.983Z,76.90
2023-05-14T03:37:41.452Z,77.07
2023-05-14T03:40:11.098Z,76.79
2023-05-14T03:42:38.563Z,77.25
2023-05-14T03:45:07.626Z,78.14
2023-05-14T03:47:35.153Z,77.42
2023-05-14T03:50:02.651Z,77.52
2023-05-14T03:52:30.547Z,76.93
2023-05-14T03:54:58.036Z,77.49
2023-05-14T03:57:26.874Z,76.80
2023-05-14T03:59:54.368Z,76.27
2023-05-14T04:02:21.958Z,77.73
2023-05-14T04:04:49.572Z,76.95
2023-05-14T04:07:17.134Z,77.15
2023-05-14T04:09:44.634Z,77.63
2023-05-14T04:12:12.186Z,77.04
2023-05-14T04:14:41.090Z,76.50
2023-05-14T04:17:08.590Z,76.80
2023-05-14T04:19:36.104Z,77.21
2023-05-14T04:22:03.988Z,78.44
2023-05-14T04:24:31.546Z,78.92
2023-05-14T04:26:59.076Z,79.76
2023-05-14T04:29:26.572Z,78.65
2023-05-14T04:31:55.977Z,77.93
2023-05-14T04:34:23.537Z,78.42
2023-05-14T04:36:51.759Z,77.90
2023-05-14T04:39:20.390Z,76.85
2023-05-14T04:41:47.876Z,76.68
2023-05-14T04:44:15.754Z,76.15
2023-05-14T04:46:43.244Z,75.32
2023-05-14T04:49:12.276Z,75.52
2023-05-14T04:51:39.813Z,75.30
2023-05-14T04:54:07.369Z,75.19
2023-05-14T04:56:34.902Z,74.98
2023-05-14T04:59:02.455Z,74.87
2023-05-14T05:01:30.074Z,74.91
2023-05-14T05:03:58.105Z,74.75
2023-05-14T05:06:27.013Z,74.79
2023-05-14T05:08:54.537Z,74.64
2023-05-14T05:11:22.054Z,74.98
2023-05-14T05:13:49.559Z,74.94
2023-05-14T05:16:17.301Z,74.88
2023-05-14T05:18:45.604Z,75.35
2023-05-14T05:21:13.152Z,75.18
2023-05-14T05:23:42.021Z,75.32
2023-05-14T05:26:09.746Z,75.96
2023-05-14T05:28:37.246Z,77.33
2023-05-14T05:31:05.007Z,77.23
2023-05-14T05:33:32.672Z,76.57
2023-05-14T05:36:00.203Z,76.35
2023-05-14T05:38:27.755Z,76.35
2023-05-14T05:40:56.694Z,77.30
2023-05-14T05:43:24.180Z,77.06
2023-05-14T05:45:51.700Z,76.86
2023-05-14T05:48:19.194Z,76.97
2023-05-14T05:50:48.977Z,77.81
2023-05-14T05:53:17.534Z,78.05
2023-05-14T05:55:45.044Z,78.33
2023-05-14T05:58:15.689Z,78.42
2023-05-14T06:00:43.218Z,79.12
2023-05-14T06:03:10.795Z,78.69
2023-05-14T06:05:38.430Z,78.69
2023-05-14T06:08:06.396Z,79.43
2023-05-14T06:10:34.716Z,78.80
2023-05-14T06:13:02.283Z,78.52
2023-05-14T06:15:31.248Z,78.93
2023-05-14T06:17:58.930Z,79.25
2023-05-14T06:20:26.622Z,79.50
2023-05-14T06:22:55.403Z,79.55
2023-05-14T06:25:23.060Z,79.45
2023-05-14T06:27:50.583Z,79.28
2023-05-14T06:30:18.130Z,79.73
2023-05-14T06:32:46.983Z,79.94
2023-05-14T06:35:14.518Z,80.21
2023-05-14T06:37:42.009Z,80.04
2023-05-14T06:40:10.666Z,79.72
2023-05-14T06:42:38.196Z,80.19
2023-05-14T06:45:06.733Z,79.58
2023-05-14T06:47:34.339Z,79.22
2023-05-14T06:50:03.261Z,79.57
2023-05-14T06:52:30.883Z,78.99
2023-05-14T06:54:58.418Z,79.01
2023-05-14T06:57:26.064Z,79.09
2023-05-14T06:59:53.536Z,78.81
2023-05-14T07:02:21.156Z,78.41
2023-05-14T07:04:49.031Z,78.80
2023-05-14T07:07:20.553Z,78.60
2023-05-14T07:09:48.228Z,79.17
2023-05-14T07:12:15.737Z,79.06
2023-05-14T07:14:43.240Z,78.43
2023-05-14T07:17:11.067Z,73.33
2023-05-14T07:19:38.617Z,72.28
2023-05-14T07:22:06.145Z,72.14
2023-05-14T07:24:35.160Z,68.25
2023-05-14T07:27:02.897Z,65.90
2023-05-14T07:29:31.053Z,65.22
2023-05-14T07:31:58.564Z,68.05
2023-05-14T07:34:26.099Z,66.20
2023-05-14T07:36:54.002Z,64.80
2023-05-14T07:39:22.672Z,64.32
2023-05-14T07:41:51.826Z,64.11
2023-05-14T07:44:19.436Z,64.73
2023-05-14T07:46:46.938Z,64.36
2023-05-14T07:49:14.425Z,63.31
2023-05-14T07:51:41.956Z,62.10
2023-05-14T07:54:09.537Z,61.30
2023-05-14T07:56:37.031Z,61.57
2023-05-14T07:59:06.989Z,62.32
2023-05-14T08:01:34.473Z,62.41
2023-05-14T08:04:02.182Z,62.18
2023-05-14T08:06:29.914Z,63.94
2023-05-14T08:08:57.426Z,68.00
2023-05-14T08:11:24.935Z,66.67
2023-05-14T08:13:52.492Z,64.78
2023-05-14T08:16:21.391Z,66.32
2023-05-14T08:18:49.520Z,66.37
2023-05-14T08:21:17.479Z,67.00
2023-05-14T08:23:45.445Z,65.63
2023-05-14T08:26:12.960Z,67.00
2023-05-14T08:28:40.519Z,67.91
2023-05-14T08:31:08.239Z,67.40
2023-05-14T08:33:37.184Z,65.66
2023-05-14T08:36:05.416Z,67.19
2023-05-14T08:38:33.079Z,66.15
2023-05-14T08:41:01.457Z,65.73
2023-05-14T08:43:35.362Z,66.15
2023-05-14T08:46:06.730Z,66.37
2023-05-14T08:48:36.038Z,66.82
2023-05-14T08:51:05.273Z,66.62
2023-05-14T08:53:32.854Z,65.77
2023-05-14T08:56:02.044Z,66.28
2023-05-14T08:58:29.829Z,66.69
2023-05-14T09:00:57.550Z,66.84
2023-05-14T09:03:25.376Z,66.41
2023-05-14T09:05:53.127Z,68.38
2023-05-14T09:08:22.233Z,68.88
2023-05-14T09:10:49.771Z,68.54
2023-05-14T09:13:17.327Z,68.58
2023-05-14T09:15:44.819Z,69.13
2023-05-14T09:18:12.579Z,68.19
2023-05-14T09:20:40.299Z,68.74
2023-05-14T09:23:07.878Z,68.25
2023-05-14T09:25:36.708Z,70.04
2023-05-14T09:28:09.382Z,69.96
2023-05-14T09:30:37.066Z,70.74
2023-05-14T09:33:04.967Z,71.14
2023-05-14T09:35:33.304Z,70.37
2023-05-14T09:38:00.847Z,69.48
2023-05-14T09:40:28.911Z,69.15
2023-05-14T09:42:58.164Z,68.85
2023-05-14T09:45:25.994Z,68.54
2023-05-14T09:47:53.777Z,69.55
2023-05-14T09:50:21.738Z,69.39
2023-05-14T09:52:49.416Z,70.00
2023-05-14T09:55:17.065Z,69.31
2023-05-14T09:57:44.980Z,68.75
2023-05-14T10:00:16.012Z,68.23
2023-05-14T10:02:45.839Z,66.89
2023-05-14T10:05:15.784Z,65.71
2023-05-14T10:07:48.280Z,65.08
2023-05-14T10:10:19.522Z,64.34
2023-05-14T10:12:52.308Z,63.70
2023-05-14T10:15:28.094Z,62.67
2023-05-14T10:17:59.710Z,61.36
2023-05-14T10:20:28.642Z,61.62
2023-05-14T10:22:57.199Z,60.87
2023-05-14T10:25:25.606Z,59.84
2023-05-14T10:27:53.880Z,60.28
2023-05-14T10:30:24.046Z,60.65
2023-05-14T10:33:06.927Z,62.26
2023-05-14T10:35:51.925Z,62.84
2023-05-14T10:38:23.859Z,62.44
2023-05-14T10:40:54.090Z,62.63
2023-05-14T10:43:24.233Z,61.68
2023-05-14T10:45:53.103Z,60.80
2023-05-14T10:48:21.281Z,62.56
2023-05-14T10:50:49.175Z,64.09
2023-05-14T10:53:16.715Z,64.12
2023-05-14T10:55:44.977Z,64.27
2023-05-14T10:58:13.489Z,61.76
2023-05-14T11:00:41.843Z,60.47
2023-05-14T11:03:13.028Z,59.78
2023-05-14T11:05:41.902Z,60.06
2023-05-14T11:08:10.041Z,59.63
2023-05-14T11:10:38.889Z,58.93
2023-05-14T11:13:07.031Z,58.52
2023-05-14T11:15:34.617Z,58.20
2023-05-14T11:18:02.218Z,57.20
2023-05-14T11:20:32.672Z,57.93
2023-05-14T11:23:00.262Z,58.45
2023-05-14T11:25:27.885Z,58.85
2023-05-14T11:27:58.583Z,59.77
2023-05-14T11:30:26.131Z,59.46
2023-05-14T11:32:54.283Z,59.04
2023-05-14T11:35:21.998Z,58.44
2023-05-14T11:37:54.015Z,56.15
2023-05-14T11:40:21.990Z,53.89
2023-05-14T11:42:52.001Z,56.40
2023-05-14T11:45:26.751Z,61.81
2023-05-14T11:47:54.782Z,64.44
2023-05-14T11:50:23.517Z,63.95
2023-05-14T11:52:52.038Z,66.41
2023-05-14T11:55:21.062Z,67.23
2023-05-14T11:57:48.832Z,67.44
2023-05-14T12:00:21.657Z,68.19
2023-05-14T12:02:50.462Z,64.28
2023-05-14T12:05:20.076Z,63.84
2023-05-14T12:07:48.227Z,64.26
2023-05-14T12:10:15.855Z,62.60
2023-05-14T12:12:46.922Z,62.07
2023-05-14T12:15:16.285Z,64.55
2023-05-14T12:17:44.280Z,64.60
2023-05-14T12:20:12.882Z,63.13
2023-05-14T12:22:42.614Z,62.28
2023-05-14T12:25:14.321Z,62.23
2023-05-14T12:27:42.202Z,63.26
2023-05-14T12:30:21.220Z,62.82
2023-05-14T12:32:51.699Z,62.76
2023-05-14T12:35:19.917Z,62.97
2023-05-14T12:37:47.515Z,64.08
2023-05-14T12:40:15.170Z,63.72
2023-05-14T12:42:42.672Z,63.72
2023-05-14T12:45:12.689Z,63.52
2023-05-14T12:47:40.347Z,62.57
2023-05-14T12:50:08.857Z,64.12
2023-05-14T12:52:39.165Z,62.54
2023-05-14T12:55:08.116Z,61.83
2023-05-14T12:57:36.021Z,61.68
2023-05-14T13:00:06.849Z,60.33
2023-05-14T13:02:42.790Z,61.08
2023-05-14T13:05:11.671Z,59.79
2023-05-14T13:07:39.419Z,58.33
2023-05-14T13:10:08.074Z,57.44
2023-05-14T13:12:35.604Z,56.92
2023-05-14T13:15:03.154Z,57.16
2023-05-14T13:17:31.137Z,58.38
2023-05-14T13:20:00.172Z,57.20
2023-05-14T13:22:27.715Z,57.80
2023-05-14T13:24:55.221Z,57.17
2023-05-14T13:27:22.714Z,56.65
2023-05-14T13:29:50.228Z,56.30
2023-05-14T13:32:17.739Z,56.91
2023-05-14T13:34:45.245Z,55.95
2023-05-14T13:37:14.628Z,55.60
2023-05-14T13:39:42.130Z,55.16
2023-05-14T13:42:09.704Z,56.34
2023-05-14T13:44:37.262Z,58.59
2023-05-14T13:47:05.258Z,55.18
2023-05-14T13:49:32.771Z,56.39
2023-05-14T13:52:00.249Z,55.54
2023-05-14T13:54:29.134Z,55.31
2023-05-14T13:56:56.808Z,54.75
2023-05-14T13:59:24.561Z,55.86
2023-05-14T14:01:52.200Z,54.32
2023-05-14T14:04:19.908Z,53.88
2023-05-14T14:06:47.429Z,54.81
2023-05-14T14:09:14.985Z,55.71
2023-05-14T14:11:43.955Z,56.34
2023-05-14T14:14:11.483Z,57.94
2023-05-14T14:16:39.094Z,61.94
2023-05-14T14:19:07.412Z,64.30
2023-05-14T14:21:36.101Z,62.73
2023-05-14T14:24:03.702Z,65.50
2023-05-14T14:26:31.231Z,67.55
2023-05-14T14:29:00.051Z,67.21
2023-05-14T14:31:27.600Z,68.89
2023-05-14T14:33:55.114Z,68.38
2023-05-14T14:36:22.717Z,68.06
2023-05-14T14:38:50.339Z,70.06
2023-05-14T14:41:17.847Z,70.85
2023-05-14T14:43:45.401Z,71.57
2023-05-14T14:46:14.254Z,72.17
2023-05-14T14:48:41.805Z,71.62
2023-05-14T14:51:10.250Z,71.21
2023-05-14T14:53:37.895Z,72.22
2023-05-14T14:56:06.167Z,70.57
2023-05-14T14:58:33.852Z,68.80
2023-05-14T15:01:01.917Z,70.00
2023-05-14T15:03:31.277Z,70.01
2023-05-14T15:05:59.091Z,71.49
2023-05-14T15:08:27.796Z,70.04
2023-05-14T15:10:55.523Z,68.85
2023-05-14T15:13:23.270Z,66.13
2023-05-14T15:15:52.128Z,66.69
2023-05-14T15:18:19.674Z,67.30
2023-05-14T15:20:48.599Z,66.72
2023-05-14T15:23:16.130Z,67.66
2023-05-14T15:25:43.656Z,65.84
2023-05-14T15:28:11.242Z,65.47
2023-05-14T15:30:38.863Z,63.43
2023-05-14T15:33:08.516Z,63.88
2023-05-14T15:35:36.454Z,63.99
2023-05-14T15:38:05.423Z,63.58
2023-05-14T15:40:34.833Z,63.72
2023-05-14T15:43:02.686Z,64.34
2023-05-14T15:45:30.203Z,63.28
2023-05-14T15:47:57.880Z,63.85
2023-05-14T15:50:26.257Z,66.39
2023-05-14T15:52:54.384Z,67.11
2023-05-14T15:55:23.510Z,68.96
2023-05-14T15:57:51.113Z,69.32
2023-05-14T16:00:19.542Z,71.34
2023-05-14T16:02:47.180Z,72.36
2023-05-14T16:05:15.291Z,71.86
2023-05-14T16:07:43.306Z,72.59
2023-05-14T16:10:11.446Z,72.66
2023-05-14T16:12:40.387Z,74.11
2023-05-14T16:15:08.854Z,73.31
2023-05-14T16:17:36.457Z,72.94
2023-05-14T16:20:05.573Z,73.06
2023-05-14T16:22:34.611Z,70.95
2023-05-14T16:25:03.482Z,68.37
2023-05-14T16:27:31.453Z,67.01
2023-05-14T16:30:00.639Z,69.24
2023-05-14T16:32:28.229Z,70.79
2023-05-14T16:34:56.396Z,70.60
2023-05-14T16:37:24.053Z,71.94
2023-05-14T16:39:51.581Z,73.48
2023-05-14T16:42:19.150Z,73.71
2023-05-14T16:44:46.684Z,74.64
2023-05-14T16:47:15.633Z,75.10
2023-05-14T16:49:43.309Z,75.24
2023-05-14T16:52:10.955Z,75.03
2023-05-14T16:54:39.548Z,75.37
2023-05-14T16:57:07.092Z,75.18
2023-05-14T16:59:34.869Z,74.84
2023-05-14T17:02:02.657Z,75.50
2023-05-14T17:04:33.136Z,75.72
2023-05-14T17:07:01.431Z,75.29
2023-05-14T17:09:28.954Z,75.24
2023-05-14T17:11:56.608Z,75.14
2023-05-14T17:14:24.167Z,75.56
2023-05-14T17:16:51.687Z,75.45
2023-05-14T17:19:19.217Z,75.44
2023-05-14T17:21:48.117Z,75.01
2023-05-14T17:24:15.726Z,74.95
2023-05-14T17:26:43.258Z,75.36
2023-05-14T17:29:10.754Z,75.44
2023-05-14T17:31:38.334Z,75.28
2023-05-14T17:34:05.901Z,71.61
2023-05-14T17:36:33.444Z,70.57
2023-05-14T17:39:02.317Z,68.85
2023-05-14T17:41:29.806Z,69.02
2023-05-14T17:43:57.324Z,70.74
2023-05-14T17:46:24.919Z,72.46
2023-05-14T17:48:52.463Z,73.42
2023-05-14T17:51:19.973Z,73.77
2023-05-14T17:53:47.469Z,74.52
2023-05-14T17:56:18.306Z,75.26
2023-05-14T17:58:46.390Z,75.83
2023-05-14T18:01:14.053Z,75.86
2023-05-14T18:03:42.235Z,76.52
2023-05-14T18:06:09.897Z,76.09
2023-05-14T18:08:37.795Z,77.15
2023-05-14T18:11:05.386Z,73.03
2023-05-14T18:13:34.247Z,69.95
2023-05-14T18:16:01.863Z,71.51
2023-05-14T18:18:29.454Z,71.31
2023-05-14T18:20:57.100Z,72.27
2023-05-14T18:23:24.645Z,73.06
2023-05-14T18:25:52.218Z,73.20
2023-05-14T18:28:21.308Z,73.83
2023-05-14T18:30:50.345Z,73.80
2023-05-14T18:33:18.044Z,73.56
2023-05-14T18:35:45.684Z,74.23
2023-05-14T18:38:13.718Z,75.31
2023-05-14T18:40:43.824Z,75.84
2023-05-14T18:43:13.208Z,76.37
2023-05-14T18:45:40.843Z,76.51
2023-05-14T18:48:10.281Z,76.44
2023-05-14T18:50:39.407Z,76.51
2023-05-14T18:53:08.308Z,75.79
2023-05-14T18:55:36.317Z,76.24
2023-05-14T18:58:03.975Z,71.81
2023-05-14T19:00:31.467Z,69.49
2023-05-14T19:02:59.086Z,70.45
2023-05-14T19:05:27.993Z,72.48
2023-05-14T19:07:55.627Z,73.77
2023-05-14T19:10:23.170Z,74.63
2023-05-14T19:12:50.978Z,75.78
2023-05-14T19:15:18.595Z,75.47
2023-05-14T19:17:46.254Z,75.93
2023-05-14T19:20:13.940Z,76.12
2023-05-14T19:22:42.804Z,74.99
2023-05-14T19:25:11.508Z,71.29
2023-05-14T19:27:39.341Z,69.13
2023-05-14T19:30:08.043Z,72.42
2023-05-14T19:32:37.417Z,75.73
2023-05-14T19:35:05.581Z,78.35
2023-05-14T19:37:33.153Z,79.83
2023-05-14T19:40:02.067Z,79.69
2023-05-14T19:42:30.580Z,79.71
2023-05-14T19:44:58.133Z,78.55
2023-05-14T19:47:25.795Z,78.26
2023-05-14T19:49:53.326Z,78.41
2023-05-14T19:52:20.896Z,78.09
2023-05-14T19:54:48.432Z,77.85
2023-05-14T19:57:17.307Z,77.28
2023-05-14T19:59:45.033Z,77.21
2023-05-14T20:02:18.012Z,77.37
2023-05-14T20:04:45.966Z,75.08
2023-05-14T20:07:15.437Z,71.14
2023-05-14T20:09:43.209Z,69.17
2023-05-14T20:12:12.747Z,68.73
2023-05-14T20:14:41.755Z,68.65
2023-05-14T20:17:09.494Z,68.49
2023-05-14T20:19:37.082Z,67.82
2023-05-14T20:22:04.767Z,67.18
2023-05-14T20:24:32.368Z,66.17
2023-05-14T20:26:59.883Z,65.68
2023-05-14T20:29:27.347Z,69.25
2023-05-14T20:31:56.839Z,71.92
2023-05-14T20:34:24.551Z,73.20
2023-05-14T20:36:52.129Z,74.26
2023-05-14T20:39:19.695Z,74.31
2023-05-14T20:41:47.232Z,74.79
2023-05-14T20:44:14.814Z,76.06
2023-05-14T20:46:42.390Z,76.54
2023-05-14T20:49:11.342Z,77.15
2023-05-14T20:51:38.908Z,77.04
2023-05-14T20:54:06.540Z,76.99
2023-05-14T20:56:36.436Z,78.18
2023-05-14T20:59:03.970Z,78.74
2023-05-14T21:01:31.513Z,79.11
2023-05-14T21:03:59.262Z,78.66
2023-05-14T21:06:28.375Z,78.11
2023-05-14T21:08:55.916Z,80.24
2023-05-14T21:11:23.854Z,79.27
2023-05-14T21:13:51.384Z,78.96
2023-05-14T21:16:19.878Z,79.77
2023-05-14T21:18:47.458Z,79.47
2023-05-14T21:21:14.967Z,80.20
2023-05-14T21:23:43.848Z,79.64
2023-05-14T21:26:11.429Z,79.23
2023-05-14T21:28:38.964Z,79.51
2023-05-14T21:31:06.653Z,80.13
2023-05-14T21:33:34.238Z,79.57
2023-05-14T21:36:01.831Z,79.91
2023-05-14T21:38:29.462Z,80.12
2023-05-14T21:40:58.321Z,80.48
2023-05-14T21:43:25.870Z,80.07
2023-05-14T21:45:53.598Z,80.59
2023-05-14T21:48:21.427Z,81.88
2023-05-14T21:50:49.162Z,82.65
2023-05-14T21:53:16.864Z,82.95
2023-05-14T21:55:44.429Z,82.02
2023-05-14T21:58:13.405Z,81.92
2023-05-14T22:00:41.089Z,80.66
2023-05-14T22:03:08.720Z,80.46
2023-05-14T22:05:36.500Z,80.12
2023-05-14T22:08:04.030Z,80.51
2023-05-14T22:10:31.618Z,80.27
2023-05-14T22:12:59.149Z,79.93
2023-05-14T22:15:28.107Z,79.42
2023-05-14T22:17:55.747Z,79.44
2023-05-14T22:20:23.460Z,79.04
2023-05-14T22:22:51.449Z,78.96
2023-05-14T22:25:19.009Z,79.41
2023-05-14T22:27:46.556Z,79.46
2023-05-14T22:30:14.252Z,79.69
2023-05-14T22:32:43.292Z,80.84
2023-05-14T22:35:11.092Z,81.12
2023-05-14T22:37:38.742Z,80.66
2023-05-14T22:40:08.744Z,80.32
2023-05-14T22:42:36.407Z,80.13
2023-05-14T22:45:04.008Z,80.18
2023-05-14T22:47:31.827Z,79.79
2023-05-14T22:50:00.739Z,79.60
2023-05-14T22:52:28.319Z,79.65
2023-05-14T22:54:55.896Z,79.94
2023-05-14T22:57:23.484Z,79.41
2023-05-14T22:59:50.990Z,79.47
2023-05-14T23:02:18.517Z,79.69
2023-05-14T23:04:46.116Z,79.80
2023-05-14T23:07:15.209Z,79.82
2023-05-14T23:09:42.739Z,80.25
2023-05-14T23:12:10.631Z,80.81
2023-05-14T23:14:38.322Z,80.62
2023-05-14T23:17:06.878Z,80.18
2023-05-14T23:19:34.425Z,79.90
2023-05-14T23:22:01.992Z,80.35
2023-05-14T23:24:30.866Z,80.77
2023-05-14T23:26:58.429Z,80.30
2023-05-14T23:29:25.994Z,80.69
2023-05-14T23:31:53.593Z,80.11
2023-05-14T23:34:22.006Z,79.92
2023-05-14T23:36:49.629Z,79.87
2023-05-14T23:39:17.381Z,79.65
2023-05-14T23:41:46.293Z,79.63
2023-05-14T23:44:13.876Z,79.39
2023-05-14T23:46:41.440Z,79.05
2023-05-14T23:49:08.993Z,78.83
2023-05-14T23:51:37.670Z,78.63
2023-05-14T23:54:05.444Z,78.64
2023-05-14T23:56:33.572Z,78.54
2023-05-14T23:59:03.487Z,78.30
